sensor_id;sensor_type;location;lat;lon;timestamp;temperature;humidity
7588;DHT22;3835;48.850;8.938;2024-01-30T00:01:01;3.80;99.90
7588;DHT22;3835;48.850;8.938;2024-01-30T00:03:28;3.80;99.90
7588;DHT22;3835;48.850;8.938;2024-01-30T00:05:56;3.50;99.90
7588;DHT22;3835;48.850;8.938;2024-01-30T00:08:24;3.60;99.90
7588;DHT22;3835;48.850;8.938;2024-01-30T00:10:51;3.60;99.90
7588;DHT22;3835;48.850;8.938;2024-01-30T00:13:17;3.80;99.90
7588;DHT22;3835;48.850;8.938;2024-01-30T00:15:45;3.90;99.90
7588;DHT22;3835;48.850;8.938;2024-01-30T00:18:12;4.10;99.90
7588;DHT22;3835;48.850;8.938;2024-01-30T00:20:39;4.10;99.90
7588;DHT22;3835;48.850;8.938;2024-01-30T00:23:05;4.00;99.90
7588;DHT22;3835;48.850;8.938;2024-01-30T00:25:34;4.00;99.90
7588;DHT22;3835;48.850;8.938;2024-01-30T00:28:01;3.80;99.90
7588;DHT22;3835;48.850;8.938;2024-01-30T00:30:28;3.80;99.90
7588;DHT22;3835;48.850;8.938;2024-01-30T00:32:54;3.80;99.90
7588;DHT22;3835;48.850;8.938;2024-01-30T00:35:21;3.70;99.90
7588;DHT22;3835;48.850;8.938;2024-01-30T00:37:48;3.80;99.90
7588;DHT22;3835;48.850;8.938;2024-01-30T00:40:15;3.70;99.90
7588;DHT22;3835;48.850;8.938;2024-01-30T00:42:44;3.70;99.90
7588;DHT22;3835;48.850;8.938;2024-01-30T00:45:14;3.60;99.90
7588;DHT22;3835;48.850;8.938;2024-01-30T00:47:41;3.60;99.90
7588;DHT22;3835;48.850;8.938;2024-01-30T00:50:09;3.70;99.90
7588;DHT22;3835;48.850;8.938;2024-01-30T00:52:36;3.60;99.90
7588;DHT22;3835;48.850;8.938;2024-01-30T00:55:05;3.70;99.90
7588;DHT22;3835;48.850;8.938;2024-01-30T00:57:32;3.60;99.90
7588;DHT22;3835;48.850;8.938;2024-01-30T01:00:00;3.80;99.90
7588;DHT22;3835;48.850;8.938;2024-01-30T01:02:27;3.80;99.90
7588;DHT22;3835;48.850;8.938;2024-01-30T01:04:54;4.20;99.90
7588;DHT22;3835;48.850;8.938;2024-01-30T01:07:20;4.40;99.90
7588;DHT22;3835;48.850;8.938;2024-01-30T01:09:47;3.60;99.90
7588;DHT22;3835;48.850;8.938;2024-01-30T01:12:14;3.70;99.90
7588;DHT22;3835;48.850;8.938;2024-01-30T01:14:41;4.00;99.90
7588;DHT22;3835;48.850;8.938;2024-01-30T01:17:09;3.70;99.90
7588;DHT22;3835;48.850;8.938;2024-01-30T01:19:36;3.40;99.90
7588;DHT22;3835;48.850;8.938;2024-01-30T01:22:03;3.50;99.90
7588;DHT22;3835;48.850;8.938;2024-01-30T01:24:31;4.00;99.90
7588;DHT22;3835;48.850;8.938;2024-01-30T01:26:58;3.70;99.90
7588;DHT22;3835;48.850;8.938;2024-01-30T01:29:25;3.90;99.90
7588;DHT22;3835;48.850;8.938;2024-01-30T01:31:54;3.80;99.90
7588;DHT22;3835;48.850;8.938;2024-01-30T01:34:23;4.00;99.90
7588;DHT22;3835;48.850;8.938;2024-01-30T01:36:50;3.40;99.90
7588;DHT22;3835;48.850;8.938;2024-01-30T01:39:17;3.40;99.90
7588;DHT22;3835;48.850;8.938;2024-01-30T01:41:44;3.50;99.90
7588;DHT22;3835;48.850;8.938;2024-01-30T01:44:11;3.70;99.90
7588;DHT22;3835;48.850;8.938;2024-01-30T01:46:38;3.40;99.90
7588;DHT22;3835;48.850;8.938;2024-01-30T01:49:05;3.30;99.90
7588;DHT22;3835;48.850;8.938;2024-01-30T01:51:35;3.50;99.90
7588;DHT22;3835;48.850;8.938;2024-01-30T01:54:04;3.70;99.90
7588;DHT22;3835;48.850;8.938;2024-01-30T01:56:31;3.10;99.90
7588;DHT22;3835;48.850;8.938;2024-01-30T01:59:00;2.80;99.90
7588;DHT22;3835;48.850;8.938;2024-01-30T02:01:31;2.60;99.90
7588;DHT22;3835;48.850;8.938;2024-01-30T02:03:59;3.10;99.90
7588;DHT22;3835;48.850;8.938;2024-01-30T02:06:26;2.30;99.90
7588;DHT22;3835;48.850;8.938;2024-01-30T02:08:55;2.30;99.90
7588;DHT22;3835;48.850;8.938;2024-01-30T02:11:22;3.30;99.90
7588;DHT22;3835;48.850;8.938;2024-01-30T02:13:49;2.50;99.90
7588;DHT22;3835;48.850;8.938;2024-01-30T02:16:16;2.80;99.90
7588;DHT22;3835;48.850;8.938;2024-01-30T02:18:43;2.40;99.90
7588;DHT22;3835;48.850;8.938;2024-01-30T02:21:14;2.90;99.90
7588;DHT22;3835;48.850;8.938;2024-01-30T02:23:43;2.90;99.90
7588;DHT22;3835;48.850;8.938;2024-01-30T02:26:10;2.60;99.90
7588;DHT22;3835;48.850;8.938;2024-01-30T02:28:38;3.10;99.90
7588;DHT22;3835;48.850;8.938;2024-01-30T02:31:04;2.90;99.90
7588;DHT22;3835;48.850;8.938;2024-01-30T02:33:31;3.40;99.90
7588;DHT22;3835;48.850;8.938;2024-01-30T02:35:58;3.20;99.90
7588;DHT22;3835;48.850;8.938;2024-01-30T02:38:27;3.60;99.90
7588;DHT22;3835;48.850;8.938;2024-01-30T02:40:54;2.90;99.90
7588;DHT22;3835;48.850;8.938;2024-01-30T02:43:22;2.80;99.90
7588;DHT22;3835;48.850;8.938;2024-01-30T02:45:48;3.40;99.90
7588;DHT22;3835;48.850;8.938;2024-01-30T02:48:15;3.30;99.90
7588;DHT22;3835;48.850;8.938;2024-01-30T02:50:42;3.30;99.90
7588;DHT22;3835;48.850;8.938;2024-01-30T02:53:09;2.60;99.90
7588;DHT22;3835;48.850;8.938;2024-01-30T02:55:37;3.80;99.90
7588;DHT22;3835;48.850;8.938;2024-01-30T02:58:04;3.00;99.90
7588;DHT22;3835;48.850;8.938;2024-01-30T03:00:31;3.30;99.90
7588;DHT22;3835;48.850;8.938;2024-01-30T03:02:57;2.50;99.90
7588;DHT22;3835;48.850;8.938;2024-01-30T03:05:25;3.30;99.90
7588;DHT22;3835;48.850;8.938;2024-01-30T03:07:51;2.80;99.90
7588;DHT22;3835;48.850;8.938;2024-01-30T03:10:18;2.70;99.90
7588;DHT22;3835;48.850;8.938;2024-01-30T03:12:46;3.10;99.90
7588;DHT22;3835;48.850;8.938;2024-01-30T03:15:13;2.80;99.90
7588;DHT22;3835;48.850;8.938;2024-01-30T03:17:41;2.30;99.90
7588;DHT22;3835;48.850;8.938;2024-01-30T03:20:08;2.60;99.90
7588;DHT22;3835;48.850;8.938;2024-01-30T03:22:35;2.40;99.90
7588;DHT22;3835;48.850;8.938;2024-01-30T03:25:03;2.80;99.90
7588;DHT22;3835;48.850;8.938;2024-01-30T03:27:30;2.60;99.90
7588;DHT22;3835;48.850;8.938;2024-01-30T03:29:58;3.10;99.90
7588;DHT22;3835;48.850;8.938;2024-01-30T03:32:24;2.60;99.90
7588;DHT22;3835;48.850;8.938;2024-01-30T03:34:51;3.10;99.90
7588;DHT22;3835;48.850;8.938;2024-01-30T03:37:18;3.40;99.90
7588;DHT22;3835;48.850;8.938;2024-01-30T03:39:45;3.10;99.90
7588;DHT22;3835;48.850;8.938;2024-01-30T03:42:12;3.40;99.90
7588;DHT22;3835;48.850;8.938;2024-01-30T03:44:39;3.30;99.90
7588;DHT22;3835;48.850;8.938;2024-01-30T03:47:07;2.60;99.90
7588;DHT22;3835;48.850;8.938;2024-01-30T03:49:34;2.70;99.90
7588;DHT22;3835;48.850;8.938;2024-01-30T03:52:01;2.60;99.90
7588;DHT22;3835;48.850;8.938;2024-01-30T03:54:27;2.60;99.90
7588;DHT22;3835;48.850;8.938;2024-01-30T03:56:54;3.50;99.90
7588;DHT22;3835;48.850;8.938;2024-01-30T03:59:21;3.00;99.90
7588;DHT22;3835;48.850;8.938;2024-01-30T04:01:49;2.80;99.90
7588;DHT22;3835;48.850;8.938;2024-01-30T04:04:17;3.00;99.90
7588;DHT22;3835;48.850;8.938;2024-01-30T04:06:45;3.20;99.90
7588;DHT22;3835;48.850;8.938;2024-01-30T04:09:12;3.30;99.90
7588;DHT22;3835;48.850;8.938;2024-01-30T04:11:40;3.40;99.90
7588;DHT22;3835;48.850;8.938;2024-01-30T04:14:07;2.20;99.90
7588;DHT22;3835;48.850;8.938;2024-01-30T04:16:34;3.20;99.90
7588;DHT22;3835;48.850;8.938;2024-01-30T04:19:01;2.50;99.90
7588;DHT22;3835;48.850;8.938;2024-01-30T04:21:30;3.20;99.90
7588;DHT22;3835;48.850;8.938;2024-01-30T04:23:56;3.50;99.90
7588;DHT22;3835;48.850;8.938;2024-01-30T04:26:23;2.30;99.90
7588;DHT22;3835;48.850;8.938;2024-01-30T04:28:50;2.90;99.90
7588;DHT22;3835;48.850;8.938;2024-01-30T04:31:17;2.10;99.90
7588;DHT22;3835;48.850;8.938;2024-01-30T04:33:44;2.60;99.90
7588;DHT22;3835;48.850;8.938;2024-01-30T04:36:10;2.50;99.90
7588;DHT22;3835;48.850;8.938;2024-01-30T04:38:39;2.60;99.90
7588;DHT22;3835;48.850;8.938;2024-01-30T04:41:06;2.30;99.90
7588;DHT22;3835;48.850;8.938;2024-01-30T04:43:35;2.80;99.90
7588;DHT22;3835;48.850;8.938;2024-01-30T04:46:02;2.70;99.90
7588;DHT22;3835;48.850;8.938;2024-01-30T04:48:29;2.50;99.90
7588;DHT22;3835;48.850;8.938;2024-01-30T04:50:56;2.50;99.90
7588;DHT22;3835;48.850;8.938;2024-01-30T04:53:23;2.50;99.90
7588;DHT22;3835;48.850;8.938;2024-01-30T04:55:51;2.50;99.90
7588;DHT22;3835;48.850;8.938;2024-01-30T04:58:17;2.50;99.90
7588;DHT22;3835;48.850;8.938;2024-01-30T05:00:44;2.90;99.90
7588;DHT22;3835;48.850;8.938;2024-01-30T05:03:17;2.50;99.90
7588;DHT22;3835;48.850;8.938;2024-01-30T05:05:44;2.60;99.90
7588;DHT22;3835;48.850;8.938;2024-01-30T05:08:11;2.40;99.90
7588;DHT22;3835;48.850;8.938;2024-01-30T05:10:38;2.40;99.90
7588;DHT22;3835;48.850;8.938;2024-01-30T05:13:06;2.70;99.90
7588;DHT22;3835;48.850;8.938;2024-01-30T05:15:33;2.40;99.90
7588;DHT22;3835;48.850;8.938;2024-01-30T05:17:59;2.30;99.90
7588;DHT22;3835;48.850;8.938;2024-01-30T05:20:26;2.50;99.90
7588;DHT22;3835;48.850;8.938;2024-01-30T05:22:54;2.50;99.90
7588;DHT22;3835;48.850;8.938;2024-01-30T05:25:21;2.20;99.90
7588;DHT22;3835;48.850;8.938;2024-01-30T05:27:49;2.80;99.90
7588;DHT22;3835;48.850;8.938;2024-01-30T05:30:17;2.90;99.90
7588;DHT22;3835;48.850;8.938;2024-01-30T05:32:44;2.50;99.90
7588;DHT22;3835;48.850;8.938;2024-01-30T05:35:10;2.50;99.90
7588;DHT22;3835;48.850;8.938;2024-01-30T05:37:37;2.50;99.90
7588;DHT22;3835;48.850;8.938;2024-01-30T05:40:05;2.90;99.90
7588;DHT22;3835;48.850;8.938;2024-01-30T05:42:32;2.30;99.90
7588;DHT22;3835;48.850;8.938;2024-01-30T05:44:59;2.50;99.90
7588;DHT22;3835;48.850;8.938;2024-01-30T05:47:27;2.50;99.90
7588;DHT22;3835;48.850;8.938;2024-01-30T05:49:54;2.10;99.90
7588;DHT22;3835;48.850;8.938;2024-01-30T05:52:21;2.10;99.90
7588;DHT22;3835;48.850;8.938;2024-01-30T05:54:48;2.20;99.90
7588;DHT22;3835;48.850;8.938;2024-01-30T05:57:14;2.10;99.90
7588;DHT22;3835;48.850;8.938;2024-01-30T05:59:41;2.10;99.90
7588;DHT22;3835;48.850;8.938;2024-01-30T06:02:10;2.00;99.90
7588;DHT22;3835;48.850;8.938;2024-01-30T06:04:38;2.10;99.90
7588;DHT22;3835;48.850;8.938;2024-01-30T06:07:05;2.20;99.90
7588;DHT22;3835;48.850;8.938;2024-01-30T06:09:32;1.90;99.90
7588;DHT22;3835;48.850;8.938;2024-01-30T06:11:58;1.90;99.90
7588;DHT22;3835;48.850;8.938;2024-01-30T06:14:25;1.90;99.90
7588;DHT22;3835;48.850;8.938;2024-01-30T06:16:52;1.80;99.90
7588;DHT22;3835;48.850;8.938;2024-01-30T06:19:19;1.80;99.90
7588;DHT22;3835;48.850;8.938;2024-01-30T06:21:47;1.70;99.90
7588;DHT22;3835;48.850;8.938;2024-01-30T06:24:14;1.70;99.90
7588;DHT22;3835;48.850;8.938;2024-01-30T06:26:41;1.80;99.90
7588;DHT22;3835;48.850;8.938;2024-01-30T06:29:08;1.70;99.90
7588;DHT22;3835;48.850;8.938;2024-01-30T06:31:40;1.70;99.90
7588;DHT22;3835;48.850;8.938;2024-01-30T06:34:07;1.90;99.90
7588;DHT22;3835;48.850;8.938;2024-01-30T06:36:34;1.60;99.90
7588;DHT22;3835;48.850;8.938;2024-01-30T06:39:02;1.70;99.90
7588;DHT22;3835;48.850;8.938;2024-01-30T06:41:29;2.00;99.90
7588;DHT22;3835;48.850;8.938;2024-01-30T06:43:56;1.80;99.90
7588;DHT22;3835;48.850;8.938;2024-01-30T06:46:23;1.90;99.90
7588;DHT22;3835;48.850;8.938;2024-01-30T06:48:49;2.30;99.90
7588;DHT22;3835;48.850;8.938;2024-01-30T06:51:16;2.20;99.90
7588;DHT22;3835;48.850;8.938;2024-01-30T06:53:43;2.40;99.90
7588;DHT22;3835;48.850;8.938;2024-01-30T06:56:11;2.50;99.90
7588;DHT22;3835;48.850;8.938;2024-01-30T06:58:38;2.40;99.90
7588;DHT22;3835;48.850;8.938;2024-01-30T07:01:06;2.40;99.90
7588;DHT22;3835;48.850;8.938;2024-01-30T07:03:32;2.50;99.90
7588;DHT22;3835;48.850;8.938;2024-01-30T07:05:59;2.80;99.90
7588;DHT22;3835;48.850;8.938;2024-01-30T07:08:26;2.70;99.90
7588;DHT22;3835;48.850;8.938;2024-01-30T07:10:53;2.30;99.90
7588;DHT22;3835;48.850;8.938;2024-01-30T07:13:22;2.70;99.90
7588;DHT22;3835;48.850;8.938;2024-01-30T07:15:48;2.60;99.90
7588;DHT22;3835;48.850;8.938;2024-01-30T07:18:15;2.60;99.90
7588;DHT22;3835;48.850;8.938;2024-01-30T07:20:42;3.00;99.90
7588;DHT22;3835;48.850;8.938;2024-01-30T07:23:11;3.10;99.90
7588;DHT22;3835;48.850;8.938;2024-01-30T07:25:39;3.10;99.90
7588;DHT22;3835;48.850;8.938;2024-01-30T07:28:07;2.70;99.90
7588;DHT22;3835;48.850;8.938;2024-01-30T07:30:36;3.10;99.90
7588;DHT22;3835;48.850;8.938;2024-01-30T07:33:03;3.10;99.90
7588;DHT22;3835;48.850;8.938;2024-01-30T07:35:30;2.90;99.90
7588;DHT22;3835;48.850;8.938;2024-01-30T07:37:57;3.10;99.90
7588;DHT22;3835;48.850;8.938;2024-01-30T07:40:24;3.00;99.90
7588;DHT22;3835;48.850;8.938;2024-01-30T07:42:52;3.50;99.90
7588;DHT22;3835;48.850;8.938;2024-01-30T07:45:19;3.40;99.90
7588;DHT22;3835;48.850;8.938;2024-01-30T07:47:49;3.60;99.90
7588;DHT22;3835;48.850;8.938;2024-01-30T07:50:16;3.80;99.90
7588;DHT22;3835;48.850;8.938;2024-01-30T07:52:43;3.50;99.90
7588;DHT22;3835;48.850;8.938;2024-01-30T07:55:10;3.90;99.90
7588;DHT22;3835;48.850;8.938;2024-01-30T07:57:38;3.80;99.90
7588;DHT22;3835;48.850;8.938;2024-01-30T08:00:06;4.00;99.90
7588;DHT22;3835;48.850;8.938;2024-01-30T08:02:33;4.00;99.90
7588;DHT22;3835;48.850;8.938;2024-01-30T08:05:03;4.30;99.90
7588;DHT22;3835;48.850;8.938;2024-01-30T08:07:30;4.30;99.90
7588;DHT22;3835;48.850;8.938;2024-01-30T08:09:57;4.50;99.90
7588;DHT22;3835;48.850;8.938;2024-01-30T08:12:23;4.60;99.90
7588;DHT22;3835;48.850;8.938;2024-01-30T08:14:50;4.50;99.90
7588;DHT22;3835;48.850;8.938;2024-01-30T08:17:17;4.50;99.90
7588;DHT22;3835;48.850;8.938;2024-01-30T08:19:44;4.60;99.90
7588;DHT22;3835;48.850;8.938;2024-01-30T08:22:13;4.80;99.90
7588;DHT22;3835;48.850;8.938;2024-01-30T08:24:41;5.00;99.90
7588;DHT22;3835;48.850;8.938;2024-01-30T08:27:08;5.20;99.90
7588;DHT22;3835;48.850;8.938;2024-01-30T08:29:35;5.30;99.90
7588;DHT22;3835;48.850;8.938;2024-01-30T08:32:03;5.30;99.90
7588;DHT22;3835;48.850;8.938;2024-01-30T08:34:30;5.40;99.90
7588;DHT22;3835;48.850;8.938;2024-01-30T08:36:57;5.50;99.90
7588;DHT22;3835;48.850;8.938;2024-01-30T08:39:25;5.60;99.90
7588;DHT22;3835;48.850;8.938;2024-01-30T08:41:52;5.70;99.90
7588;DHT22;3835;48.850;8.938;2024-01-30T08:44:19;5.80;99.90
7588;DHT22;3835;48.850;8.938;2024-01-30T08:46:46;5.90;99.90
7588;DHT22;3835;48.850;8.938;2024-01-30T08:49:16;5.90;99.90
7588;DHT22;3835;48.850;8.938;2024-01-30T08:51:43;6.00;99.90
7588;DHT22;3835;48.850;8.938;2024-01-30T08:54:10;6.20;99.90
7588;DHT22;3835;48.850;8.938;2024-01-30T08:56:38;6.30;99.90
7588;DHT22;3835;48.850;8.938;2024-01-30T08:59:05;6.50;99.90
7588;DHT22;3835;48.850;8.938;2024-01-30T09:01:31;6.60;99.90
7588;DHT22;3835;48.850;8.938;2024-01-30T09:03:58;6.70;99.90
7588;DHT22;3835;48.850;8.938;2024-01-30T09:06:25;6.80;99.90
7588;DHT22;3835;48.850;8.938;2024-01-30T09:08:53;7.00;99.90
7588;DHT22;3835;48.850;8.938;2024-01-30T09:11:20;7.10;99.90
7588;DHT22;3835;48.850;8.938;2024-01-30T09:13:49;7.10;99.90
7588;DHT22;3835;48.850;8.938;2024-01-30T09:16:16;7.30;99.90
7588;DHT22;3835;48.850;8.938;2024-01-30T09:18:43;7.50;99.90
7588;DHT22;3835;48.850;8.938;2024-01-30T09:21:10;7.90;99.90
7588;DHT22;3835;48.850;8.938;2024-01-30T09:23:37;7.80;99.90
7588;DHT22;3835;48.850;8.938;2024-01-30T09:26:04;7.90;99.90
7588;DHT22;3835;48.850;8.938;2024-01-30T09:28:30;8.10;99.90
7588;DHT22;3835;48.850;8.938;2024-01-30T09:30:58;8.20;99.90
7588;DHT22;3835;48.850;8.938;2024-01-30T09:33:25;8.30;99.90
7588;DHT22;3835;48.850;8.938;2024-01-30T09:35:52;8.40;99.90
7588;DHT22;3835;48.850;8.938;2024-01-30T09:38:18;8.50;99.90
7588;DHT22;3835;48.850;8.938;2024-01-30T09:40:50;8.70;99.90
7588;DHT22;3835;48.850;8.938;2024-01-30T09:43:22;8.70;99.90
7588;DHT22;3835;48.850;8.938;2024-01-30T09:45:50;8.80;99.90
7588;DHT22;3835;48.850;8.938;2024-01-30T09:48:19;8.90;99.90
7588;DHT22;3835;48.850;8.938;2024-01-30T09:50:46;8.90;99.90
7588;DHT22;3835;48.850;8.938;2024-01-30T09:53:13;8.80;99.90
7588;DHT22;3835;48.850;8.938;2024-01-30T09:55:43;8.80;99.90
7588;DHT22;3835;48.850;8.938;2024-01-30T09:58:10;9.10;99.90
7588;DHT22;3835;48.850;8.938;2024-01-30T10:00:36;9.10;99.90
7588;DHT22;3835;48.850;8.938;2024-01-30T10:03:04;9.30;99.90
7588;DHT22;3835;48.850;8.938;2024-01-30T10:05:33;9.40;99.90
7588;DHT22;3835;48.850;8.938;2024-01-30T10:08:06;9.60;99.90
7588;DHT22;3835;48.850;8.938;2024-01-30T10:10:33;9.60;99.90
7588;DHT22;3835;48.850;8.938;2024-01-30T10:13:01;9.70;99.90
7588;DHT22;3835;48.850;8.938;2024-01-30T10:15:28;9.80;99.90
7588;DHT22;3835;48.850;8.938;2024-01-30T10:17:55;9.80;99.90
7588;DHT22;3835;48.850;8.938;2024-01-30T10:20:22;9.90;99.90
7588;DHT22;3835;48.850;8.938;2024-01-30T10:22:52;10.00;99.90
7588;DHT22;3835;48.850;8.938;2024-01-30T10:25:21;10.10;99.90
7588;DHT22;3835;48.850;8.938;2024-01-30T10:27:52;10.10;99.90
7588;DHT22;3835;48.850;8.938;2024-01-30T10:30:18;10.10;99.90
7588;DHT22;3835;48.850;8.938;2024-01-30T10:32:45;10.10;99.90
7588;DHT22;3835;48.850;8.938;2024-01-30T10:35:12;10.30;99.90
7588;DHT22;3835;48.850;8.938;2024-01-30T10:37:39;10.50;99.90
7588;DHT22;3835;48.850;8.938;2024-01-30T10:40:09;10.60;99.90
7588;DHT22;3835;48.850;8.938;2024-01-30T10:42:41;10.70;99.90
7588;DHT22;3835;48.850;8.938;2024-01-30T10:45:10;10.70;99.90
7588;DHT22;3835;48.850;8.938;2024-01-30T10:47:40;10.80;99.90
7588;DHT22;3835;48.850;8.938;2024-01-30T10:50:08;10.90;99.90
7588;DHT22;3835;48.850;8.938;2024-01-30T10:52:36;11.00;99.90
7588;DHT22;3835;48.850;8.938;2024-01-30T10:55:04;11.10;99.90
7588;DHT22;3835;48.850;8.938;2024-01-30T10:57:35;11.20;99.90
7588;DHT22;3835;48.850;8.938;2024-01-30T11:00:04;11.30;99.90
7588;DHT22;3835;48.850;8.938;2024-01-30T11:02:37;11.30;99.90
7588;DHT22;3835;48.850;8.938;2024-01-30T11:05:05;11.40;99.90
7588;DHT22;3835;48.850;8.938;2024-01-30T11:07:32;11.30;99.90
7588;DHT22;3835;48.850;8.938;2024-01-30T11:10:01;11.50;99.90
7588;DHT22;3835;48.850;8.938;2024-01-30T11:12:30;11.30;99.90
7588;DHT22;3835;48.850;8.938;2024-01-30T11:15:04;11.20;99.90
7588;DHT22;3835;48.850;8.938;2024-01-30T11:17:55;11.30;99.90
7588;DHT22;3835;48.850;8.938;2024-01-30T11:20:25;11.50;99.90
7588;DHT22;3835;48.850;8.938;2024-01-30T11:22:53;11.30;99.90
7588;DHT22;3835;48.850;8.938;2024-01-30T11:25:21;11.50;99.90
7588;DHT22;3835;48.850;8.938;2024-01-30T11:27:50;11.60;99.90
7588;DHT22;3835;48.850;8.938;2024-01-30T11:30:26;11.50;99.90
7588;DHT22;3835;48.850;8.938;2024-01-30T11:33:00;11.60;99.90
7588;DHT22;3835;48.850;8.938;2024-01-30T11:35:30;11.60;99.90
7588;DHT22;3835;48.850;8.938;2024-01-30T11:37:58;11.60;99.90
7588;DHT22;3835;48.850;8.938;2024-01-30T11:40:27;11.80;99.90
7588;DHT22;3835;48.850;8.938;2024-01-30T11:42:55;11.90;99.90
7588;DHT22;3835;48.850;8.938;2024-01-30T11:45:22;11.90;99.90
7588;DHT22;3835;48.850;8.938;2024-01-30T11:47:50;11.90;99.90
7588;DHT22;3835;48.850;8.938;2024-01-30T11:50:18;12.00;99.90
7588;DHT22;3835;48.850;8.938;2024-01-30T11:52:45;12.00;99.90
7588;DHT22;3835;48.850;8.938;2024-01-30T11:55:13;12.20;99.90
7588;DHT22;3835;48.850;8.938;2024-01-30T11:57:41;12.10;99.90
7588;DHT22;3835;48.850;8.938;2024-01-30T12:00:14;12.30;99.90
7588;DHT22;3835;48.850;8.938;2024-01-30T12:02:42;12.20;99.90
7588;DHT22;3835;48.850;8.938;2024-01-30T12:05:10;12.30;99.90
7588;DHT22;3835;48.850;8.938;2024-01-30T12:07:37;12.20;99.90
7588;DHT22;3835;48.850;8.938;2024-01-30T12:10:05;12.20;99.90
7588;DHT22;3835;48.850;8.938;2024-01-30T12:12:33;12.20;99.90
7588;DHT22;3835;48.850;8.938;2024-01-30T12:15:00;12.40;99.90
7588;DHT22;3835;48.850;8.938;2024-01-30T12:17:29;12.20;99.90
7588;DHT22;3835;48.850;8.938;2024-01-30T12:20:03;12.30;99.90
7588;DHT22;3835;48.850;8.938;2024-01-30T12:22:35;12.30;99.90
7588;DHT22;3835;48.850;8.938;2024-01-30T12:25:05;12.40;99.90
7588;DHT22;3835;48.850;8.938;2024-01-30T12:27:32;12.50;99.90
7588;DHT22;3835;48.850;8.938;2024-01-30T12:29:59;12.50;99.90
7588;DHT22;3835;48.850;8.938;2024-01-30T12:32:26;12.60;99.90
7588;DHT22;3835;48.850;8.938;2024-01-30T12:34:57;12.60;99.90
7588;DHT22;3835;48.850;8.938;2024-01-30T12:37:24;12.60;99.90
7588;DHT22;3835;48.850;8.938;2024-01-30T12:39:55;12.70;99.90
7588;DHT22;3835;48.850;8.938;2024-01-30T12:42:22;12.70;99.90
7588;DHT22;3835;48.850;8.938;2024-01-30T12:44:49;12.80;99.90
7588;DHT22;3835;48.850;8.938;2024-01-30T12:47:16;12.80;99.90
7588;DHT22;3835;48.850;8.938;2024-01-30T12:49:43;12.90;99.90
7588;DHT22;3835;48.850;8.938;2024-01-30T12:52:11;13.00;99.90
7588;DHT22;3835;48.850;8.938;2024-01-30T12:54:38;13.10;99.90
7588;DHT22;3835;48.850;8.938;2024-01-30T12:57:06;13.10;99.90
7588;DHT22;3835;48.850;8.938;2024-01-30T12:59:33;12.90;99.90
7588;DHT22;3835;48.850;8.938;2024-01-30T13:02:01;13.30;99.90
7588;DHT22;3835;48.850;8.938;2024-01-30T13:04:29;13.30;99.90
7588;DHT22;3835;48.850;8.938;2024-01-30T13:06:56;13.30;99.90
7588;DHT22;3835;48.850;8.938;2024-01-30T13:09:23;13.20;99.90
7588;DHT22;3835;48.850;8.938;2024-01-30T13:11:51;13.30;99.90
7588;DHT22;3835;48.850;8.938;2024-01-30T13:14:19;13.10;99.90
7588;DHT22;3835;48.850;8.938;2024-01-30T13:16:46;13.00;99.90
7588;DHT22;3835;48.850;8.938;2024-01-30T13:19:13;13.00;99.90
7588;DHT22;3835;48.850;8.938;2024-01-30T13:21:40;12.90;99.90
7588;DHT22;3835;48.850;8.938;2024-01-30T13:24:08;13.10;99.90
7588;DHT22;3835;48.850;8.938;2024-01-30T13:26:35;12.90;99.90
7588;DHT22;3835;48.850;8.938;2024-01-30T13:29:02;12.70;99.90
7588;DHT22;3835;48.850;8.938;2024-01-30T13:31:31;12.60;99.90
7588;DHT22;3835;48.850;8.938;2024-01-30T13:33:58;12.50;99.90
7588;DHT22;3835;48.850;8.938;2024-01-30T13:36:24;12.50;99.90
7588;DHT22;3835;48.850;8.938;2024-01-30T13:38:51;12.20;99.90
7588;DHT22;3835;48.850;8.938;2024-01-30T13:41:18;12.40;99.90
7588;DHT22;3835;48.850;8.938;2024-01-30T13:43:46;12.20;99.90
7588;DHT22;3835;48.850;8.938;2024-01-30T13:46:13;12.20;99.90
7588;DHT22;3835;48.850;8.938;2024-01-30T13:48:42;12.20;99.90
7588;DHT22;3835;48.850;8.938;2024-01-30T13:51:09;12.10;99.90
7588;DHT22;3835;48.850;8.938;2024-01-30T13:53:36;12.10;99.90
7588;DHT22;3835;48.850;8.938;2024-01-30T13:56:03;12.10;99.90
7588;DHT22;3835;48.850;8.938;2024-01-30T13:58:31;12.00;99.90
7588;DHT22;3835;48.850;8.938;2024-01-30T14:01:00;12.00;99.90
7588;DHT22;3835;48.850;8.938;2024-01-30T14:03:27;12.00;99.90
7588;DHT22;3835;48.850;8.938;2024-01-30T14:05:55;11.90;99.90
7588;DHT22;3835;48.850;8.938;2024-01-30T14:08:22;11.70;99.90
7588;DHT22;3835;48.850;8.938;2024-01-30T14:10:53;11.70;99.90
7588;DHT22;3835;48.850;8.938;2024-01-30T14:13:20;12.00;99.90
7588;DHT22;3835;48.850;8.938;2024-01-30T14:15:48;11.50;99.90
7588;DHT22;3835;48.850;8.938;2024-01-30T14:18:15;11.50;99.90
7588;DHT22;3835;48.850;8.938;2024-01-30T14:20:42;11.30;99.90
7588;DHT22;3835;48.850;8.938;2024-01-30T14:23:10;11.30;99.90
7588;DHT22;3835;48.850;8.938;2024-01-30T14:25:37;11.40;99.90
7588;DHT22;3835;48.850;8.938;2024-01-30T14:28:04;11.30;99.90
7588;DHT22;3835;48.850;8.938;2024-01-30T14:30:31;11.30;99.90
7588;DHT22;3835;48.850;8.938;2024-01-30T14:32:58;11.30;99.90
7588;DHT22;3835;48.850;8.938;2024-01-30T14:35:25;11.20;99.90
7588;DHT22;3835;48.850;8.938;2024-01-30T14:37:52;11.20;99.90
7588;DHT22;3835;48.850;8.938;2024-01-30T14:40:21;11.20;99.90
7588;DHT22;3835;48.850;8.938;2024-01-30T14:42:48;11.20;99.90
7588;DHT22;3835;48.850;8.938;2024-01-30T14:45:15;11.10;99.90
7588;DHT22;3835;48.850;8.938;2024-01-30T14:47:43;11.10;99.90
7588;DHT22;3835;48.850;8.938;2024-01-30T14:50:10;11.10;99.90
7588;DHT22;3835;48.850;8.938;2024-01-30T14:52:37;11.10;99.90
7588;DHT22;3835;48.850;8.938;2024-01-30T14:55:05;10.90;99.90
7588;DHT22;3835;48.850;8.938;2024-01-30T14:57:34;10.80;99.90
7588;DHT22;3835;48.850;8.938;2024-01-30T15:00:04;10.70;99.90
7588;DHT22;3835;48.850;8.938;2024-01-30T15:02:31;10.50;99.90
7588;DHT22;3835;48.850;8.938;2024-01-30T15:04:57;10.40;99.90
7588;DHT22;3835;48.850;8.938;2024-01-30T15:07:24;10.40;99.90
7588;DHT22;3835;48.850;8.938;2024-01-30T15:09:51;10.20;99.90
7588;DHT22;3835;48.850;8.938;2024-01-30T15:12:18;10.00;99.90
7588;DHT22;3835;48.850;8.938;2024-01-30T15:14:46;10.20;99.90
7588;DHT22;3835;48.850;8.938;2024-01-30T15:17:16;10.00;99.90
7588;DHT22;3835;48.850;8.938;2024-01-30T15:19:43;9.70;99.90
7588;DHT22;3835;48.850;8.938;2024-01-30T15:22:10;9.60;99.90
7588;DHT22;3835;48.850;8.938;2024-01-30T15:24:37;9.80;99.90
7588;DHT22;3835;48.850;8.938;2024-01-30T15:27:04;9.40;99.90
7588;DHT22;3835;48.850;8.938;2024-01-30T15:29:31;9.30;99.90
7588;DHT22;3835;48.850;8.938;2024-01-30T15:32:00;9.60;99.90
7588;DHT22;3835;48.850;8.938;2024-01-30T15:34:27;9.20;99.90
7588;DHT22;3835;48.850;8.938;2024-01-30T15:36:53;9.40;99.90
7588;DHT22;3835;48.850;8.938;2024-01-30T15:39:20;9.20;99.90
7588;DHT22;3835;48.850;8.938;2024-01-30T15:41:47;9.20;99.90
7588;DHT22;3835;48.850;8.938;2024-01-30T15:44:14;9.10;99.90
7588;DHT22;3835;48.850;8.938;2024-01-30T15:46:41;9.40;99.90
7588;DHT22;3835;48.850;8.938;2024-01-30T15:49:09;9.10;99.90
7588;DHT22;3835;48.850;8.938;2024-01-30T15:51:36;9.20;99.90
7588;DHT22;3835;48.850;8.938;2024-01-30T15:54:03;9.00;99.90
7588;DHT22;3835;48.850;8.938;2024-01-30T15:56:30;8.90;99.90
7588;DHT22;3835;48.850;8.938;2024-01-30T15:58:57;8.80;99.90
7588;DHT22;3835;48.850;8.938;2024-01-30T16:01:24;8.90;99.90
7588;DHT22;3835;48.850;8.938;2024-01-30T16:03:51;8.70;99.90
7588;DHT22;3835;48.850;8.938;2024-01-30T16:06:19;8.80;99.90
7588;DHT22;3835;48.850;8.938;2024-01-30T16:08:46;8.70;99.90
7588;DHT22;3835;48.850;8.938;2024-01-30T16:11:16;8.70;99.90
7588;DHT22;3835;48.850;8.938;2024-01-30T16:13:43;8.60;99.90